TimeEST,TemperatureF,Dew PointF,Humidity,Sea Level PressureIn,VisibilityMPH,Wind Direction,Wind SpeedMPH,Gust SpeedMPH,PrecipitationIn,Events,Conditions,WindDirDegrees,DateUTC
12:35 AM,30.2,19.4,64,29.91,10.0,NNW,10.4,16.1,N/A,,Overcast,340,2012-11-08 05:35:00
12:55 AM,30.2,21.2,69,29.90,10.0,NNW,11.5,-,N/A,,Overcast,340,2012-11-08 05:55:00
1:15 AM,30.2,21.2,69,29.90,10.0,North,9.2,-,N/A,,Overcast,350,2012-11-08 06:15:00
1:35 AM,30.2,21.2,69,29.89,10.0,North,11.5,-,N/A,,Overcast,360,2012-11-08 06:35:00
2:35 AM,30.2,21.2,69,29.88,10.0,North,9.2,17.3,N/A,,Overcast,350,2012-11-08 07:35:00
2:55 AM,28.4,21.2,74,29.88,10.0,North,10.4,-,N/A,,Overcast,350,2012-11-08 07:55:00
3:15 AM,28.4,21.2,74,29.87,10.0,North,12.7,-,N/A,,Overcast,360,2012-11-08 08:15:00
3:35 AM,30.2,21.2,69,29.87,10.0,North,8.1,-,N/A,,Overcast,360,2012-11-08 08:35:00
3:55 AM,28.4,21.2,74,29.87,10.0,North,8.1,-,N/A,,Overcast,350,2012-11-08 08:55:00
4:15 AM,30.2,19.4,64,29.87,10.0,NNW,10.4,16.1,N/A,,Overcast,340,2012-11-08 09:15:00
4:35 AM,30.2,21.2,69,29.87,10.0,North,6.9,-,N/A,,Overcast,350,2012-11-08 09:35:00
4:55 AM,30.2,19.4,64,29.86,10.0,NNW,9.2,-,N/A,,Overcast,330,2012-11-08 09:55:00
5:15 AM,30.2,19.4,64,29.87,10.0,NNW,10.4,-,N/A,,Overcast,330,2012-11-08 10:15:00
5:36 AM,28.4,19.4,69,29.87,10.0,North,9.2,-,N/A,,Overcast,350,2012-11-08 10:36:00
5:55 AM,28.4,19.4,69,29.87,10.0,North,10.4,-,N/A,,Overcast,360,2012-11-08 10:55:00
6:15 AM,28.4,21.2,74,29.87,10.0,North,9.2,-,N/A,,Overcast,360,2012-11-08 11:15:00
6:35 AM,28.4,19.4,69,29.87,10.0,North,10.4,16.1,N/A,,Overcast,350,2012-11-08 11:35:00
6:55 AM,28.4,19.4,69,29.88,10.0,North,8.1,-,N/A,,Overcast,350,2012-11-08 11:55:00
7:15 AM,28.4,21.2,74,29.89,10.0,NNW,5.8,-,N/A,,Overcast,340,2012-11-08 12:15:00
7:35 AM,28.4,21.2,74,29.88,10.0,North,10.4,18.4,N/A,,Overcast,350,2012-11-08 12:35:00
7:55 AM,28.4,21.2,74,29.88,10.0,NNW,12.7,21.9,N/A,,Overcast,330,2012-11-08 12:55:00
8:15 AM,28.4,21.2,74,29.89,10.0,NNW,9.2,18.4,N/A,,Overcast,340,2012-11-08 13:15:00
8:35 AM,28.4,21.2,74,29.88,10.0,NNW,6.9,-,N/A,,Overcast,340,2012-11-08 13:35:00
8:55 AM,30.2,21.2,69,29.88,10.0,NNW,11.5,16.1,N/A,,Overcast,340,2012-11-08 13:55:00
9:15 AM,30.2,21.2,69,29.88,10.0,NNW,6.9,-,N/A,,Mostly Cloudy,330,2012-11-08 14:15:00
9:35 AM,30.2,21.2,69,29.88,10.0,NNW,11.5,17.3,N/A,,Overcast,330,2012-11-08 14:35:00
9:55 AM,30.2,21.2,69,29.88,10.0,NNW,10.4,18.4,N/A,,Overcast,340,2012-11-08 14:55:00
10:15 AM,30.2,21.2,69,29.87,10.0,NNW,10.4,17.3,N/A,,Overcast,330,2012-11-08 15:15:00
10:35 AM,30.2,21.2,69,29.87,10.0,NNW,6.9,-,N/A,,Overcast,340,2012-11-08 15:35:00
10:55 AM,32.0,21.2,64,29.86,10.0,North,10.4,17.3,N/A,,Overcast,350,2012-11-08 15:55:00
11:15 AM,32.0,21.2,64,29.85,10.0,NNW,8.1,19.6,N/A,,Overcast,330,2012-11-08 16:15:00
11:35 AM,32.0,23.0,69,29.85,10.0,NNW,12.7,16.1,N/A,,Overcast,330,2012-11-08 16:35:00
11:55 AM,32.0,23.0,69,29.85,10.0,NW,12.7,17.3,N/A,,Mostly Cloudy,320,2012-11-08 16:55:00
12:15 PM,32.0,23.0,69,29.85,10.0,NNW,10.4,-,N/A,,Scattered Clouds,340,2012-11-08 17:15:00
12:35 PM,33.8,23.0,65,29.84,10.0,NNW,11.5,19.6,N/A,,Mostly Cloudy,330,2012-11-08 17:35:00
12:55 PM,33.8,24.8,70,29.84,10.0,NNW,9.2,17.3,N/A,,Overcast,330,2012-11-08 17:55:00
1:15 PM,33.8,24.8,70,29.84,10.0,NNW,11.5,17.3,N/A,,Overcast,330,2012-11-08 18:15:00
1:35 PM,33.8,24.8,70,29.84,10.0,NNW,15.0,18.4,N/A,,Overcast,340,2012-11-08 18:35:00
1:55 PM,32.0,24.8,75,29.84,10.0,NNW,11.5,23.0,N/A,,Overcast,330,2012-11-08 18:55:00
2:15 PM,33.8,24.8,70,29.85,10.0,NNW,11.5,23.0,N/A,,Overcast,330,2012-11-08 19:15:00
2:35 PM,33.8,24.8,70,29.85,10.0,NNW,13.8,19.6,N/A,,Overcast,340,2012-11-08 19:35:00
2:55 PM,33.8,24.8,70,29.85,10.0,NNW,13.8,20.7,N/A,,Overcast,340,2012-11-08 19:55:00
3:15 PM,33.8,26.6,75,29.85,10.0,NW,13.8,19.6,N/A,,Overcast,320,2012-11-08 20:15:00
3:35 PM,33.8,26.6,75,29.86,10.0,NNW,11.5,21.9,N/A,,Overcast,330,2012-11-08 20:35:00
3:55 PM,33.8,26.6,75,29.86,10.0,NNW,11.5,24.2,N/A,,Overcast,330,2012-11-08 20:55:00
4:15 PM,33.8,26.6,75,29.87,10.0,NNW,12.7,20.7,N/A,,Overcast,330,2012-11-08 21:15:00
4:35 PM,33.8,26.6,75,29.87,8.0,NNW,13.8,18.4,N/A,,Overcast,330,2012-11-08 21:35:00
4:55 PM,33.8,26.6,75,29.87,5.0,NNW,11.5,18.4,N/A,,Overcast,340,2012-11-08 21:55:00
5:15 PM,33.8,28.4,81,29.88,9.0,NNW,8.1,16.1,N/A,,Overcast,330,2012-11-08 22:15:00
5:35 PM,33.8,28.4,81,29.89,7.0,NNW,11.5,19.6,N/A,,Overcast,340,2012-11-08 22:35:00
5:55 PM,33.8,28.4,81,29.89,7.0,NNW,8.1,20.7,N/A,,Overcast,330,2012-11-08 22:55:00
6:15 PM,33.8,28.4,81,29.90,4.0,NNW,10.4,17.3,N/A,,Overcast,340,2012-11-08 23:15:00
6:35 PM,33.8,28.4,81,29.91,4.0,NNW,10.4,-,N/A,,Overcast,340,2012-11-08 23:35:00
6:55 PM,32.0,28.4,87,29.91,3.0,NNW,10.4,-,N/A,,Overcast,340,2012-11-08 23:55:00
7:15 PM,32.0,30.2,93,29.91,4.0,NNW,6.9,-,N/A,,Overcast,330,2012-11-09 00:15:00
7:35 PM,32.0,30.2,93,29.91,5.0,NNW,4.6,-,N/A,,Overcast,340,2012-11-09 00:35:00
7:55 PM,33.8,30.2,87,29.91,3.0,NNW,5.8,-,N/A,,Overcast,340,2012-11-09 00:55:00
8:15 PM,33.8,30.2,87,29.91,3.0,NNW,8.1,-,0.01,,Overcast,340,2012-11-09 01:15:00
8:35 PM,33.8,30.2,87,29.91,7.0,NNW,9.2,-,0.01,,Overcast,330,2012-11-09 01:35:00
9:15 PM,33.8,28.4,81,29.91,10.0,NNW,11.5,20.7,N/A,,Overcast,340,2012-11-09 02:15:00
9:35 PM,33.8,28.4,81,29.91,10.0,NNW,13.8,24.2,N/A,,Overcast,330,2012-11-09 02:35:00
9:55 PM,33.8,26.6,75,29.91,10.0,NNW,12.7,25.3,N/A,,Overcast,330,2012-11-09 02:55:00
10:15 PM,33.8,26.6,75,29.91,10.0,NNW,13.8,19.6,N/A,,Overcast,340,2012-11-09 03:15:00
10:35 PM,35.6,26.6,70,29.91,10.0,NNW,10.4,20.7,N/A,,Overcast,340,2012-11-09 03:35:00
10:55 PM,33.8,26.6,75,29.90,10.0,NW,8.1,17.3,N/A,,Overcast,320,2012-11-09 03:55:00
11:15 PM,33.8,26.6,75,29.91,10.0,NW,5.8,-,N/A,,Overcast,320,2012-11-09 04:15:00
11:35 PM,33.8,26.6,75,29.90,10.0,NW,4.6,-,N/A,,Overcast,310,2012-11-09 04:35:00